Wilbur Observed Data For Previous 48 Hours

Caption
Day and Hour Reservoir Elevation (behind dam)* Tailwater Elevation (below dam)* Average Hourly Discharge*
8/20/2018 2 AM EDT 1,647.90 1,582.88 240
8/20/2018 3 AM EDT 1,647.68 1,582.87 239
8/20/2018 4 AM EDT 1,647.42 1,582.86 235
8/20/2018 5 AM EDT 1,647.19 1,582.84 235
8/20/2018 6 AM EDT 1,646.95 1,582.83 231
8/20/2018 7 AM EDT 1,648.17 1,582.87 236
8/20/2018 8 AM EDT 1,648.04 1,582.87 240
8/20/2018 9 AM EDT 1,647.82 1,582.86 240
8/20/2018 10 AM EDT 1,647.58 1,582.86 237
8/20/2018 11 AM EDT 1,647.35 1,582.85 235
8/20/2018 12 PM EDT 1,648.05 1,582.87 237
8/20/2018 1 PM EDT 1,649.09 1,585.34 327
8/20/2018 2 PM EDT 1,648.52 1,585.64 1,756
8/20/2018 3 PM EDT 1,647.87 1,585.62 1,755
8/20/2018 4 PM EDT 1,647.21 1,585.60 1,748
8/20/2018 5 PM EDT 1,646.51 1,585.62 1,742
8/20/2018 6 PM EDT 1,645.83 1,585.60 1,732
8/20/2018 7 PM EDT 1,647.23 1,582.83 259
8/20/2018 8 PM EDT 1,647.10 1,582.82 233
8/20/2018 9 PM EDT 1,646.91 1,582.81 230
8/20/2018 10 PM EDT 1,646.65 1,582.80 230
8/20/2018 11 PM EDT 1,646.42 1,582.79 226
8/21/2018 12 AM EDT 1,646.18 1,582.78 225
8/21/2018 1 AM EDT 1,645.94 1,582.77 222
8/21/2018 2 AM EDT 1,645.71 1,582.76 220
8/21/2018 3 AM EDT 1,645.47 1,582.75 218
8/21/2018 4 AM EDT 1,645.24 1,582.74 215
8/21/2018 5 AM EDT 1,645.00 1,582.73 214
8/21/2018 6 AM EDT 1,646.35 1,582.77 219
8/21/2018 7 AM EDT 1,647.73 1,582.82 231
8/21/2018 8 AM EDT 1,647.60 1,582.83 236
8/21/2018 9 AM EDT 1,647.38 1,582.82 235
8/21/2018 10 AM EDT 1,647.16 1,582.81 235
8/21/2018 11 AM EDT 1,646.90 1,582.80 230
8/21/2018 12 PM EDT 1,646.66 1,582.79 230
8/21/2018 1 PM EDT 1,647.98 1,583.84 234
8/21/2018 2 PM EDT 1,647.51 1,585.62 1,703
8/21/2018 3 PM EDT 1,647.04 1,585.62 1,749
8/21/2018 4 PM EDT 1,646.59 1,585.62 1,750
8/21/2018 5 PM EDT 1,646.15 1,585.60 1,741
8/21/2018 6 PM EDT 1,645.69 1,585.60 1,731
8/21/2018 7 PM EDT 1,647.33 1,582.83 257
8/21/2018 8 PM EDT 1,648.67 1,582.86 240
8/21/2018 9 PM EDT 1,648.49 1,582.86 245
8/21/2018 10 PM EDT 1,648.29 1,582.85 245
8/21/2018 11 PM EDT 1,648.05 1,582.84 240
8/22/2018 12 AM EDT 1,647.83 1,582.84 240
8/22/2018 1 AM EDT 1,647.58 1,582.83 238
8/22/2018 2 AM EDT 1,647.35 1,582.82 235
8/22/2018 3 AM EDT 1,647.11 1,582.81 234

Elevations are in feet above sea level. Discharges are in cubic feet per second and are reported at the end of the hour.